Welcome to Northern Hawkes Bay. New Zealand.
PWS Header
      nz Flag



Hit Counter


W3C Valid W3C Valid logo


    Wairoa

Select any of the Stations below to visit their websites.










Historic Data from Weather Underground
Select the location of interest below. Wairoa is the default. Please have patience, this Data is slow to load in.
Northern Hawkes Bay Historical Data
Daily Summary for November 13, 2017 Units:  Metric    English   Both
« Previous Day
Next Day »
Daily Weekly Monthly Yearly Custom
  High: Low: Average:
Temperature: 18.0 °C 8.4 °C 12.9 °C
Dew Point: 11.4 °C 8.1 °C 9.6 °C
Humidity: 99% 58% 82%
Wind Speed: 17.2km/h 0.0km/h 5.9km/h
Wind Gust: 29.4km/h - -
Wind- - SW
Pressure: 1025.3 hPa 1020.9 hPa -
Precipitation: 3.0 mm    
Historical Graphs
 
 
Tabular Data for November 13, 2017
Time Temperature Dew Point Pressure Wind Wind Speed Wind Gust Humidity Rainfall Rate (Hourly) solar
00:02 13.3 °C 8.9 °C 1020.9 hPa South 13.4 km/h 23.3 km/h 75% 0.0 mm 66 W/m2
00:07 13.3 °C 8.8 °C 1020.9 hPa SSW 13.4 km/h 21.9 km/h 74% 0.0 mm 66 W/m2
00:12 13.3 °C 8.6 °C 1020.9 hPa SSW 8.7 km/h 21.9 km/h 73% 0.0 mm 62 W/m2
00:17 13.4 °C 8.9 °C 1020.9 hPa SSW 12.2 km/h 21.9 km/h 74% 0.0 mm 55 W/m2
00:22 13.3 °C 8.2 °C 1020.9 hPa SSW 9.7 km/h 21.9 km/h 71% 0.0 mm 51 W/m2
00:27 13.3 °C 8.4 °C 1020.9 hPa South 14.8 km/h 21.9 km/h 72% 0.0 mm 58 W/m2
00:32 13.3 °C 8.4 °C 1020.9 hPa SSW 7.2 km/h 23.3 km/h 72% 0.0 mm 53 W/m2
00:37 13.3 °C 8.6 °C 1020.9 hPa SSW 9.7 km/h 24.5 km/h 73% 0.0 mm 43 W/m2
00:42 13.3 °C 8.6 °C 1020.9 hPa South 8.7 km/h 25.6 km/h 73% 0.0 mm 41 W/m2
00:47 13.3 °C 8.6 °C 1020.9 hPa SSW 11.1 km/h 25.6 km/h 73% 0.0 mm 31 W/m2
00:52 13.2 °C 8.9 °C 1020.9 hPa SSW 15.8 km/h 23.3 km/h 75% 0.0 mm 31 W/m2
00:57 13.2 °C 9.1 °C 1021.2 hPa SSW 17.2 km/h 23.3 km/h 76% 0.0 mm 25 W/m2
01:02 13.1 °C 8.9 °C 1021.2 hPa SW 9.7 km/h 23.3 km/h 76% 0.0 mm 24 W/m2
01:07 13.1 °C 8.9 °C 1021.2 hPa SSW 5.0 km/h 23.3 km/h 76% 0.0 mm 19 W/m2
01:12 13.1 °C 8.9 °C 1021.2 hPa SSW 12.2 km/h 20.9 km/h 76% 0.0 mm 18 W/m2
01:17 13.0 °C 8.7 °C 1021.2 hPa South 8.7 km/h 18.3 km/h 75% 0.0 mm 12 W/m2
01:23 13.0 °C 8.9 °C 1021.6 hPa SSW 8.7 km/h 17.2 km/h 76% 0.0 mm 6 W/m2
01:28 12.9 °C 8.9 °C 1021.6 hPa SW 12.2 km/h 20.9 km/h 77% 0.0 mm 5 W/m2
01:33 12.9 °C 8.6 °C 1021.6 hPa SSW 12.2 km/h 20.9 km/h 75% 0.0 mm 4 W/m2
01:38 12.9 °C 8.4 °C 1021.6 hPa SSW 6.1 km/h 19.5 km/h 74% 0.0 mm 2 W/m2
01:43 12.9 °C 8.6 °C 1021.6 hPa SSW 8.7 km/h 15.8 km/h 75% 0.0 mm 0 W/m2
01:48 12.9 °C 8.9 °C 1021.6 hPa SSW 12.2 km/h 19.5 km/h 77% 0.0 mm 0 W/m2
01:53 12.8 °C 8.7 °C 1021.6 hPa SSW 14.8 km/h 20.9 km/h 76% 0.0 mm 0 W/m2
01:58 12.8 °C 8.7 °C 1021.6 hPa SSW 11.1 km/h 20.9 km/h 76% 0.0 mm 0 W/m2
02:03 12.8 °C 8.5 °C 1021.6 hPa SSW 8.7 km/h 19.5 km/h 75% 0.0 mm 0 W/m2
02:08 12.8 °C 8.5 °C 1021.6 hPa SSW 8.7 km/h 18.3 km/h 75% 0.0 mm 0 W/m2
02:13 12.9 °C 8.6 °C 1021.6 hPa SSW 5.0 km/h 18.3 km/h 75% 0.0 mm 0 W/m2
02:18 12.9 °C 8.8 °C 1021.6 hPa SSW 12.2 km/h 18.3 km/h 76% 0.0 mm 0 W/m2
02:23 12.9 °C 8.6 °C 1021.9 hPa SSW 11.1 km/h 20.9 km/h 75% 0.0 mm 0 W/m2
02:28 12.9 °C 8.8 °C 1021.9 hPa South 6.1 km/h 20.9 km/h 76% 0.0 mm 0 W/m2
02:33 12.9 °C 8.8 °C 1021.9 hPa SSW 8.7 km/h 18.3 km/h 76% 0.0 mm 0 W/m2
02:38 12.9 °C 8.6 °C 1021.9 hPa SSW 9.7 km/h 18.3 km/h 75% 0.0 mm 0 W/m2
02:43 12.9 °C 8.6 °C 1021.9 hPa SSW 5.0 km/h 21.9 km/h 75% 0.0 mm 0 W/m2
02:48 12.9 °C 8.6 °C 1021.9 hPa SW 7.2 km/h 21.9 km/h 75% 0.0 mm 0 W/m2
02:53 12.8 °C 8.3 °C 1021.9 hPa SSW 3.5 km/h 19.5 km/h 74% 0.0 mm 0 W/m2
02:58 12.9 °C 8.8 °C 1022.2 hPa SSW 7.2 km/h 14.8 km/h 76% 0.0 mm 0 W/m2
03:03 12.9 °C 8.6 °C 1022.2 hPa SSW 11.1 km/h 19.5 km/h 75% 0.0 mm 0 W/m2
03:08 12.9 °C 8.8 °C 1022.2 hPa SW 7.2 km/h 19.5 km/h 76% 0.0 mm 0 W/m2
03:13 12.9 °C 9.2 °C 1022.2 hPa SSW 14.8 km/h 19.5 km/h 78% 0.0 mm 0 W/m2
03:18 12.8 °C 9.1 °C 1022.2 hPa SSW 11.1 km/h 19.5 km/h 78% 0.0 mm 0 W/m2
03:23 12.8 °C 9.1 °C 1022.2 hPa SSW 11.1 km/h 20.9 km/h 78% 0.0 mm 0 W/m2
03:28 12.8 °C 8.9 °C 1022.6 hPa SSW 11.1 km/h 20.9 km/h 77% 0.0 mm 0 W/m2
03:33 12.9 °C 8.6 °C 1022.6 hPa SSW 7.2 km/h 19.5 km/h 75% 0.0 mm 0 W/m2
03:38 12.9 °C 8.6 °C 1022.6 hPa SSW 13.4 km/h 19.5 km/h 75% 0.0 mm 0 W/m2
03:43 12.9 °C 8.6 °C 1022.6 hPa SW 7.2 km/h 18.3 km/h 75% 0.0 mm 0 W/m2
03:48 12.8 °C 8.3 °C 1022.6 hPa SW 5.0 km/h 21.9 km/h 74% 0.0 mm 0 W/m2
03:53 12.8 °C 8.3 °C 1022.6 hPa SSW 9.7 km/h 21.9 km/h 74% 0.0 mm 0 W/m2
03:58 12.8 °C 8.1 °C 1022.6 hPa South 9.7 km/h 21.9 km/h 73% 0.0 mm 0 W/m2
04:03 12.8 °C 8.3 °C 1022.6 hPa SSW 7.2 km/h 19.5 km/h 74% 0.0 mm 0 W/m2
04:08 12.8 °C 8.7 °C 1022.9 hPa SSW 9.7 km/h 18.3 km/h 76% 0.0 mm 0 W/m2
04:13 12.8 °C 8.7 °C 1022.6 hPa SSW 6.1 km/h 14.8 km/h 76% 0.0 mm 0 W/m2
04:18 12.8 °C 8.7 °C 1022.6 hPa SW 6.1 km/h 13.4 km/h 76% 0.0 mm 0 W/m2
04:23 12.7 °C 8.6 °C 1022.6 hPa SW 5.0 km/h 13.4 km/h 76% 0.0 mm 0 W/m2
04:28 12.8 °C 8.7 °C 1022.6 hPa SW 11.1 km/h 15.8 km/h 76% 0.0 mm 0 W/m2
04:34 12.5 °C 9.3 °C 1022.9 hPa South 14.8 km/h 29.4 km/h 81% 0.3 mm 0 W/m2
04:54 10.9 °C 9.8 °C 1022.9 hPa South 2.6 km/h 11.3 km/h 93% 1.8 mm 0 W/m2
04:59 10.7 °C 9.8 °C 1022.9 hPa SSE 3.5 km/h 7.2 km/h 94% 1.8 mm 0 W/m2
05:04 10.8 °C 9.9 °C 1022.6 hPa Calm   5.0 km/h 94% 1.8 mm 0 W/m2
05:09 10.8 °C 10.1 °C 1022.6 hPa ENE 2.6 km/h 5.0 km/h 95% 1.8 mm 0 W/m2
05:14 10.7 °C 9.9 °C 1022.9 hPa Calm   5.0 km/h 95% 1.8 mm 0 W/m2
05:19 10.7 °C 10.1 °C 1022.9 hPa Calm   3.5 km/h 96% 1.8 mm 0 W/m2
05:24 10.7 °C 10.1 °C 1022.9 hPa WNW 2.6 km/h 5.0 km/h 96% 1.8 mm 0 W/m2
05:29 10.6 °C 10.0 °C 1022.9 hPa West 3.5 km/h 11.1 km/h 96% 1.8 mm 0 W/m2
05:34 10.6 °C 10.0 °C 1022.9 hPa WSW 3.5 km/h 11.1 km/h 96% 1.3 mm 0 W/m2
05:39 10.6 °C 9.8 °C 1022.9 hPa Calm   8.7 km/h 95% 1.3 mm 0 W/m2
05:44 10.6 °C 9.8 °C 1022.9 hPa Calm   6.1 km/h 95% 1.3 mm 0 W/m2
05:49 10.5 °C 9.7 °C 1022.9 hPa Calm   5.0 km/h 95% 1.3 mm 0 W/m2
05:54 10.4 °C 9.6 °C 1022.6 hPa Calm   6.1 km/h 95% 0.0 mm 0 W/m2
05:59 10.4 °C 9.6 °C 1022.9 hPa Calm   6.1 km/h 95% 0.0 mm 0 W/m2
06:04 10.4 °C 9.6 °C 1022.9 hPa West 1.1 km/h 5.0 km/h 95% 0.0 mm 0 W/m2
06:14 10.8 °C 10.2 °C 1022.9 hPa South 1.1 km/h 9.7 km/h 96% 0.0 mm 0 W/m2
06:19 11.1 °C 10.3 °C 1022.6 hPa SSE 6.1 km/h 12.2 km/h 95% 0.0 mm 0 W/m2
06:24 11.3 °C 10.4 °C 1022.9 hPa South 9.7 km/h 17.2 km/h 94% 0.0 mm 0 W/m2
06:29 11.3 °C 10.2 °C 1022.9 hPa South 3.5 km/h 17.2 km/h 93% 0.0 mm 0 W/m2
06:34 11.3 °C 10.1 °C 1022.9 hPa South 7.2 km/h 17.2 km/h 92% 0.0 mm 0 W/m2
06:39 11.2 °C 9.9 °C 1023.2 hPa South 6.1 km/h 14.8 km/h 92% 0.5 mm 0 W/m2
06:44 11.0 °C 9.8 °C 1022.9 hPa Calm   14.8 km/h 92% 1.3 mm 0 W/m2
06:49 10.9 °C 9.8 °C 1022.9 hPa SSE 1.1 km/h 9.7 km/h 93% 1.3 mm 0 W/m2
06:54 10.7 °C 9.8 °C 1022.9 hPa Calm   2.6 km/h 94% 1.5 mm 0 W/m2
06:59 10.7 °C 9.9 °C 1022.9 hPa NW 2.6 km/h 6.1 km/h 95% 1.5 mm 0 W/m2
07:04 10.6 °C 9.8 °C 1022.6 hPa Calm   6.1 km/h 95% 1.5 mm 0 W/m2
07:09 10.6 °C 10.0 °C 1022.9 hPa NW 1.1 km/h 5.0 km/h 96% 1.5 mm 0 W/m2
07:14 10.6 °C 10.2 °C 1022.9 hPa Calm   5.0 km/h 97% 1.5 mm 0 W/m2
07:19 10.5 °C 10.1 °C 1022.9 hPa WNW 2.6 km/h 6.1 km/h 97% 1.5 mm 0 W/m2
07:24 10.5 °C 10.1 °C 1022.9 hPa NNW 3.5 km/h 6.1 km/h 97% 1.5 mm 0 W/m2
07:29 10.5 °C 10.2 °C 1022.9 hPa NW 2.6 km/h 6.1 km/h 98% 1.5 mm 0 W/m2
07:34 10.5 °C 10.3 °C 1022.9 hPa NNW 3.5 km/h 7.2 km/h 99% 1.5 mm 0 W/m2
07:39 10.4 °C 10.3 °C 1022.9 hPa NNW 3.5 km/h 8.7 km/h 99% 1.0 mm 0 W/m2
07:44 10.3 °C 10.2 °C 1022.9 hPa NNW 6.1 km/h 9.7 km/h 99% 0.3 mm 0 W/m2
07:49 10.2 °C 10.1 °C 1022.2 hPa NNW 7.2 km/h 11.1 km/h 99% 0.3 mm 0 W/m2
07:54 10.2 °C 10.1 °C 1022.9 hPa NW 1.1 km/h 11.1 km/h 99% 0.0 mm 0 W/m2
07:59 10.2 °C 10.1 °C 1022.9 hPa SSW 1.1 km/h 9.7 km/h 99% 0.0 mm 0 W/m2
08:04 10.1 °C 9.9 °C 1022.9 hPa South 1.1 km/h 9.7 km/h 99% 0.3 mm 0 W/m2
08:09 10.0 °C 9.8 °C 1022.9 hPa Calm   6.1 km/h 99% 0.3 mm 0 W/m2
08:14 10.0 °C 9.8 °C 1022.9 hPa Calm   3.5 km/h 99% 1.0 mm 0 W/m2
08:19 9.9 °C 9.8 °C 1022.6 hPa NNE 3.5 km/h 5.0 km/h 99% 1.0 mm 0 W/m2
08:24 10.0 °C 9.8 °C 1022.6 hPa North 3.5 km/h 5.0 km/h 99% 1.0 mm 0 W/m2
08:29 9.9 °C 9.8 °C 1022.6 hPa NNW 5.0 km/h 7.2 km/h 99% 1.0 mm 0 W/m2
08:34 9.9 °C 9.8 °C 1022.6 hPa NW 2.6 km/h 7.2 km/h 99% 1.0 mm 0 W/m2
08:39 9.9 °C 9.8 °C 1022.6 hPa NW 5.0 km/h 8.7 km/h 99% 1.0 mm 0 W/m2
08:44 9.9 °C 9.8 °C 1022.6 hPa NW 3.5 km/h 8.7 km/h 99% 1.3 mm 0 W/m2
08:49 9.8 °C 9.7 °C 1022.6 hPa Calm   7.2 km/h 99% 1.3 mm 0 W/m2
08:54 9.8 °C 9.7 °C 1022.6 hPa WNW 1.1 km/h 6.1 km/h 99% 1.3 mm 0 W/m2
08:59 9.7 °C 9.6 °C 1022.9 hPa WNW 3.5 km/h 6.1 km/h 99% 1.3 mm 0 W/m2
09:04 9.8 °C 9.7 °C 1022.6 hPa NW 6.1 km/h 7.2 km/h 99% 1.3 mm 0 W/m2
09:09 9.8 °C 9.7 °C 1022.6 hPa NNW 3.5 km/h 7.2 km/h 99% 1.0 mm 0 W/m2
09:14 9.9 °C 9.8 °C 1022.6 hPa NNW 6.1 km/h 8.7 km/h 99% 0.5 mm 0 W/m2
09:19 9.9 °C 9.8 °C 1022.6 hPa NW 2.6 km/h 8.7 km/h 99% 0.5 mm 0 W/m2
09:24 9.8 °C 9.7 °C 1022.6 hPa NW 1.1 km/h 8.7 km/h 99% 0.5 mm 0 W/m2
09:29 9.7 °C 9.6 °C 1022.6 hPa NW 2.6 km/h 7.2 km/h 99% 0.5 mm 0 W/m2
09:34 9.7 °C 9.6 °C 1022.6 hPa NW 2.6 km/h 5.0 km/h 99% 0.5 mm 0 W/m2
09:39 9.7 °C 9.6 °C 1022.6 hPa NNW 2.6 km/h 5.0 km/h 99% 0.5 mm 0 W/m2
09:44 9.7 °C 9.6 °C 1022.6 hPa NNW 1.1 km/h 6.1 km/h 99% 0.3 mm 0 W/m2
09:49 9.7 °C 9.6 °C 1022.2 hPa NW 2.6 km/h 6.1 km/h 99% 0.3 mm 0 W/m2
09:54 9.7 °C 9.6 °C 1022.2 hPa NW 2.6 km/h 6.1 km/h 99% 0.3 mm 0 W/m2
09:59 9.6 °C 9.4 °C 1022.6 hPa NW 1.1 km/h 6.1 km/h 99% 0.0 mm 0 W/m2
10:04 9.5 °C 9.3 °C 1022.6 hPa NW 2.6 km/h 6.1 km/h 99% 0.0 mm 0 W/m2
10:09 9.5 °C 9.3 °C 1022.6 hPa Calm   5.0 km/h 99% 0.0 mm 0 W/m2
10:14 9.4 °C 9.3 °C 1022.6 hPa NNW 1.1 km/h 5.0 km/h 99% 0.0 mm 0 W/m2
10:19 9.3 °C 9.2 °C 1022.6 hPa Calm   5.0 km/h 99% 0.0 mm 0 W/m2
10:24 9.3 °C 9.2 °C 1022.6 hPa NNW 3.5 km/h 5.0 km/h 99% 0.0 mm 0 W/m2
10:29 9.3 °C 9.2 °C 1022.6 hPa NW 1.1 km/h 5.0 km/h 99% 0.0 mm 0 W/m2
10:34 9.2 °C 9.1 °C 1022.6 hPa NW 1.1 km/h 5.0 km/h 99% 0.0 mm 0 W/m2
10:39 9.2 °C 9.1 °C 1022.6 hPa Calm   3.5 km/h 99% 0.0 mm 0 W/m2
10:44 9.1 °C 8.9 °C 1022.6 hPa NW 2.6 km/h 3.5 km/h 99% 0.0 mm 0 W/m2
10:49 8.9 °C 8.8 °C 1022.6 hPa NW 1.1 km/h 5.0 km/h 99% 0.0 mm 0 W/m2
10:54 8.9 °C 8.8 °C 1022.6 hPa NW 1.1 km/h 5.0 km/h 99% 0.0 mm 0 W/m2
10:59 8.8 °C 8.7 °C 1022.6 hPa NW 2.6 km/h 6.1 km/h 99% 0.0 mm 0 W/m2
11:04 8.8 °C 8.7 °C 1022.6 hPa NW 1.1 km/h 6.1 km/h 99% 0.0 mm 0 W/m2
11:09 8.6 °C 8.4 °C 1022.6 hPa NNW 1.1 km/h 3.5 km/h 99% 0.0 mm 0 W/m2
11:14 8.6 °C 8.4 °C 1022.6 hPa NNW 2.6 km/h 5.0 km/h 99% 0.0 mm 0 W/m2
11:19 8.4 °C 8.3 °C 1022.6 hPa NNW 1.1 km/h 5.0 km/h 99% 0.0 mm 0 W/m2
11:24 8.4 °C 8.3 °C 1022.6 hPa NNW 2.6 km/h 5.0 km/h 99% 0.0 mm 0 W/m2
11:29 8.4 °C 8.3 °C 1022.6 hPa NNW 2.6 km/h 5.0 km/h 99% 0.0 mm 0 W/m2
11:34 8.4 °C 8.3 °C 1022.9 hPa NNW 2.6 km/h 5.0 km/h 99% 0.0 mm 0 W/m2
11:39 8.4 °C 8.3 °C 1022.6 hPa Calm   5.0 km/h 99% 0.0 mm 0 W/m2
11:44 8.4 °C 8.3 °C 1022.6 hPa North 1.1 km/h 5.0 km/h 99% 0.0 mm 0 W/m2
11:49 8.4 °C 8.3 °C 1022.9 hPa NNW 1.1 km/h 3.5 km/h 99% 0.0 mm 0 W/m2
12:09 8.6 °C 8.4 °C 1022.9 hPa NNW 2.6 km/h 6.1 km/h 99% 0.0 mm 7 W/m2
12:14 8.7 °C 8.6 °C 1022.9 hPa North 2.6 km/h 6.1 km/h 99% 0.0 mm 9 W/m2
12:19 8.8 °C 8.7 °C 1022.9 hPa NNW 1.1 km/h 6.1 km/h 99% 0.0 mm 17 W/m2
12:24 8.8 °C 8.7 °C 1022.9 hPa NNW 1.1 km/h 5.0 km/h 99% 0.0 mm 18 W/m2
12:29 8.9 °C 8.8 °C 1023.2 hPa NNW 1.1 km/h 5.0 km/h 99% 0.0 mm 18 W/m2
12:34 8.9 °C 8.8 °C 1022.9 hPa North 2.6 km/h 6.1 km/h 99% 0.0 mm 18 W/m2
12:39 8.9 °C 8.8 °C 1022.9 hPa North 1.1 km/h 6.1 km/h 99% 0.0 mm 22 W/m2
12:44 9.0 °C 8.8 °C 1022.9 hPa NNW 2.6 km/h 5.0 km/h 99% 0.0 mm 24 W/m2
12:49 9.0 °C 8.8 °C 1022.9 hPa NNW 2.6 km/h 7.2 km/h 99% 0.0 mm 31 W/m2
12:54 9.1 °C 8.9 °C 1022.9 hPa NNW 3.5 km/h 7.2 km/h 99% 0.0 mm 33 W/m2
12:59 9.2 °C 9.1 °C 1023.2 hPa NNW 2.6 km/h 6.1 km/h 99% 0.0 mm 37 W/m2
13:04 9.2 °C 9.1 °C 1023.2 hPa NNW 2.6 km/h 6.1 km/h 99% 0.0 mm 45 W/m2
13:09 9.2 °C 9.1 °C 1023.2 hPa NNW 3.5 km/h 6.1 km/h 99% 0.0 mm 48 W/m2
13:14 9.3 °C 9.2 °C 1023.2 hPa North 2.6 km/h 6.1 km/h 99% 0.0 mm 51 W/m2
13:19 9.4 °C 9.3 °C 1023.2 hPa North 2.6 km/h 6.1 km/h 99% 0.0 mm 52 W/m2
13:24 9.5 °C 9.3 °C 1023.2 hPa North 2.6 km/h 6.1 km/h 99% 0.0 mm 63 W/m2
13:29 9.6 °C 9.4 °C 1023.2 hPa North 2.6 km/h 6.1 km/h 99% 0.0 mm 70 W/m2
13:34 9.8 °C 9.7 °C 1023.2 hPa North 2.6 km/h 6.1 km/h 99% 0.0 mm 79 W/m2
13:39 10.0 °C 9.8 °C 1023.2 hPa North 2.6 km/h 6.1 km/h 99% 0.0 mm 96 W/m2
13:44 10.2 °C 10.1 °C 1023.2 hPa NNW 2.6 km/h 5.0 km/h 99% 0.0 mm 106 W/m2
13:49 10.5 °C 10.3 °C 1023.2 hPa Calm   5.0 km/h 99% 0.0 mm 182 W/m2
13:54 10.9 °C 10.8 °C 1023.6 hPa Calm   5.0 km/h 99% 0.0 mm 131 W/m2
13:59 11.5 °C 11.2 °C 1023.6 hPa North 5.0 km/h 7.2 km/h 98% 0.0 mm 242 W/m2
14:04 12.0 °C 11.2 °C 1023.6 hPa NNE 2.6 km/h 7.2 km/h 95% 0.0 mm 289 W/m2
14:09 12.7 °C 11.4 °C 1023.9 hPa North 2.6 km/h 7.2 km/h 92% 0.0 mm 381 W/m2
14:14 13.4 °C 11.4 °C 1023.9 hPa NNW 1.1 km/h 7.2 km/h 88% 0.0 mm 331 W/m2
14:19 13.6 °C 10.8 °C 1024.3 hPa WSW 6.1 km/h 12.2 km/h 83% 0.0 mm 170 W/m2
14:24 13.1 °C 9.9 °C 1023.9 hPa WSW 1.1 km/h 12.2 km/h 81% 0.0 mm 156 W/m2
14:29 12.8 °C 9.8 °C 1024.3 hPa SW 2.6 km/h 12.2 km/h 82% 0.0 mm 118 W/m2
14:34 12.5 °C 9.5 °C 1024.3 hPa WSW 5.0 km/h 11.1 km/h 82% 0.0 mm 135 W/m2
14:39 12.2 °C 9.2 °C 1024.3 hPa WSW 11.1 km/h 17.2 km/h 82% 0.0 mm 158 W/m2
14:44 12.4 °C 9.4 °C 1024.3 hPa WSW 6.1 km/h 17.2 km/h 82% 0.0 mm 369 W/m2
14:49 13.1 °C 10.1 °C 1024.3 hPa SW 12.2 km/h 15.8 km/h 82% 0.0 mm 396 W/m2
14:54 13.4 °C 9.7 °C 1024.6 hPa SW 11.1 km/h 15.8 km/h 78% 0.0 mm 113 W/m2
14:59 13.2 °C 9.7 °C 1024.6 hPa SW 6.1 km/h 15.8 km/h 79% 0.0 mm 275 W/m2
15:04 13.4 °C 9.8 °C 1024.6 hPa WSW 7.2 km/h 14.8 km/h 79% 0.0 mm 205 W/m2
15:09 13.6 °C 10.1 °C 1024.6 hPa SW 11.1 km/h 14.8 km/h 79% 0.0 mm 424 W/m2
15:14 13.5 °C 9.6 °C 1024.9 hPa SW 9.7 km/h 18.3 km/h 77% 0.0 mm 283 W/m2
15:19 13.3 °C 9.2 °C 1024.9 hPa SW 14.8 km/h 18.3 km/h 76% 0.0 mm 355 W/m2
15:24 13.5 °C 9.6 °C 1024.9 hPa WSW 9.7 km/h 18.3 km/h 77% 0.0 mm 447 W/m2
15:29 14.1 °C 9.7 °C 1024.9 hPa WSW 8.7 km/h 18.3 km/h 75% 0.0 mm 473 W/m2
15:34 14.0 °C 9.4 °C 1024.9 hPa WSW 15.8 km/h 19.5 km/h 74% 0.0 mm 495 W/m2
15:39 14.1 °C 9.7 °C 1024.9 hPa SW 13.4 km/h 19.5 km/h 75% 0.0 mm 513 W/m2
15:44 13.9 °C 9.7 °C 1024.9 hPa WSW 12.2 km/h 20.9 km/h 76% 0.0 mm 524 W/m2
15:49 14.1 °C 9.7 °C 1024.9 hPa WSW 8.7 km/h 20.9 km/h 75% 0.0 mm 531 W/m2
15:54 14.4 °C 10.1 °C 1024.9 hPa SW 14.8 km/h 20.9 km/h 75% 0.0 mm 547 W/m2
15:59 14.4 °C 10.1 °C 1024.9 hPa WSW 9.7 km/h 20.9 km/h 75% 0.0 mm 553 W/m2
16:04 14.7 °C 10.1 °C 1024.9 hPa WSW 8.7 km/h 20.9 km/h 74% 0.0 mm 569 W/m2
16:09 14.6 °C 10.0 °C 1024.9 hPa SW 11.1 km/h 18.3 km/h 74% 0.0 mm 585 W/m2
16:14 14.8 °C 10.2 °C 1024.9 hPa SW 15.8 km/h 17.2 km/h 74% 0.0 mm 603 W/m2
16:19 15.0 °C 10.0 °C 1024.9 hPa SW 11.1 km/h 19.5 km/h 72% 0.0 mm 633 W/m2
16:24 15.2 °C 9.8 °C 1024.9 hPa SSW 12.2 km/h 19.5 km/h 70% 0.0 mm 656 W/m2
16:29 15.1 °C 9.7 °C 1025.3 hPa South 12.2 km/h 23.3 km/h 70% 0.0 mm 661 W/m2
16:34 15.0 °C 9.4 °C 1025.3 hPa SSW 11.1 km/h 23.3 km/h 69% 0.0 mm 695 W/m2
16:39 14.9 °C 9.7 °C 1024.9 hPa SW 7.2 km/h 19.5 km/h 71% 0.0 mm 713 W/m2
16:44 15.0 °C 9.6 °C 1024.9 hPa SW 7.2 km/h 18.3 km/h 70% 0.0 mm 727 W/m2
16:49 15.1 °C 9.7 °C 1024.9 hPa SW 6.1 km/h 17.2 km/h 70% 0.0 mm 758 W/m2
16:54 15.4 °C 10.4 °C 1025.3 hPa SW 11.1 km/h 17.2 km/h 72% 0.0 mm 761 W/m2
16:59 15.6 °C 10.2 °C 1024.9 hPa SW 13.4 km/h 15.8 km/h 70% 0.0 mm 757 W/m2
17:04 15.3 °C 9.4 °C 1024.9 hPa SW 11.1 km/h 15.8 km/h 68% 0.0 mm 758 W/m2
17:09 15.2 °C 10.0 °C 1024.9 hPa SW 11.1 km/h 19.5 km/h 71% 0.0 mm 763 W/m2
17:14 15.3 °C 10.3 °C 1025.3 hPa SW 11.1 km/h 19.5 km/h 72% 0.0 mm 772 W/m2
17:19 15.2 °C 10.0 °C 1025.3 hPa SSW 7.2 km/h 17.2 km/h 71% 0.0 mm 777 W/m2
17:24 15.1 °C 9.9 °C 1024.9 hPa SSW 13.4 km/h 19.5 km/h 71% 0.0 mm 783 W/m2
17:29 14.9 °C 10.1 °C 1024.9 hPa South 12.2 km/h 20.9 km/h 73% 0.0 mm 785 W/m2
17:34 15.4 °C 10.6 °C 1025.3 hPa South 13.4 km/h 20.9 km/h 73% 0.0 mm 806 W/m2
17:39 15.2 °C 10.0 °C 1025.3 hPa South 11.1 km/h 20.9 km/h 71% 0.0 mm 814 W/m2
17:44 15.2 °C 9.6 °C 1025.3 hPa South 11.1 km/h 19.5 km/h 69% 0.0 mm 838 W/m2
17:49 15.3 °C 9.9 °C 1024.9 hPa SSW 9.7 km/h 18.3 km/h 70% 0.0 mm 857 W/m2
17:54 15.3 °C 9.4 °C 1024.9 hPa South 15.8 km/h 20.9 km/h 68% 0.0 mm 828 W/m2
17:59 15.4 °C 9.9 °C 1024.9 hPa SSW 9.7 km/h 20.9 km/h 70% 0.0 mm 883 W/m2
18:04 15.7 °C 10.1 °C 1024.9 hPa SSW 8.7 km/h 20.9 km/h 69% 0.0 mm 955 W/m2
18:09 15.6 °C 9.9 °C 1024.9 hPa SSW 13.4 km/h 20.9 km/h 69% 0.0 mm 610 W/m2
18:27 15.3 °C 10.1 °C 1024.9 hPa South 11.1 km/h 19.5 km/h 71% 0.0 mm 675 W/m2
18:32 15.2 °C 10.2 °C 1024.9 hPa South 11.1 km/h 19.5 km/h 72% 0.0 mm 444 W/m2
18:37 15.1 °C 10.3 °C 1024.9 hPa South 8.7 km/h 18.3 km/h 73% 0.0 mm 427 W/m2
18:42 15.0 °C 9.8 °C 1024.9 hPa SSW 9.7 km/h 18.3 km/h 71% 0.0 mm 774 W/m2
18:47 15.5 °C 10.5 °C 1024.9 hPa SSW 8.7 km/h 18.3 km/h 72% 0.0 mm 603 W/m2
18:52 15.5 °C 10.1 °C 1024.9 hPa South 8.7 km/h 17.2 km/h 70% 0.0 mm 584 W/m2
18:57 15.2 °C 9.3 °C 1024.9 hPa South 7.2 km/h 18.3 km/h 68% 0.0 mm 621 W/m2
19:02 15.4 °C 9.7 °C 1024.9 hPa SSW 11.1 km/h 18.3 km/h 69% 0.0 mm 821 W/m2
19:07 15.6 °C 9.9 °C 1024.9 hPa SSW 7.2 km/h 17.2 km/h 69% 0.0 mm 786 W/m2
19:12 15.8 °C 10.1 °C 1024.9 hPa South 6.1 km/h 15.8 km/h 69% 0.0 mm 750 W/m2
19:17 16.0 °C 10.1 °C 1024.9 hPa South 13.4 km/h 15.8 km/h 68% 0.0 mm 791 W/m2
19:22 15.9 °C 10.0 °C 1024.9 hPa SSW 7.2 km/h 15.8 km/h 68% 0.0 mm 792 W/m2
19:27 15.9 °C 9.8 °C 1024.6 hPa South 12.2 km/h 15.8 km/h 67% 0.0 mm 793 W/m2
19:32 16.1 °C 9.8 °C 1024.9 hPa South 8.7 km/h 15.8 km/h 66% 0.0 mm 820 W/m2
19:37 16.3 °C 9.5 °C 1024.9 hPa South 3.5 km/h 13.4 km/h 64% 0.0 mm 857 W/m2
19:42 17.1 °C 10.0 °C 1024.9 hPa South 7.2 km/h 13.4 km/h 63% 0.0 mm 708 W/m2
19:47 16.1 °C 8.8 °C 1024.6 hPa South 6.1 km/h 15.8 km/h 62% 0.0 mm 708 W/m2
19:52 16.5 °C 9.9 °C 1024.6 hPa South 6.1 km/h 15.8 km/h 65% 0.0 mm 739 W/m2
19:57 16.5 °C 9.7 °C 1024.6 hPa South 6.1 km/h 17.2 km/h 64% 0.0 mm 747 W/m2
20:02 16.4 °C 9.3 °C 1024.6 hPa South 9.7 km/h 17.2 km/h 63% 0.0 mm 721 W/m2
20:07 16.1 °C 10.2 °C 1024.6 hPa SSE 12.2 km/h 17.2 km/h 68% 0.0 mm 703 W/m2
20:12 16.1 °C 10.0 °C 1024.6 hPa SSE 2.6 km/h 17.2 km/h 67% 0.0 mm 689 W/m2
20:17 16.5 °C 9.9 °C 1024.6 hPa SSE 8.7 km/h 17.2 km/h 65% 0.0 mm 688 W/m2
20:22 16.4 °C 10.1 °C 1024.6 hPa SSE 5.0 km/h 17.2 km/h 66% 0.0 mm 676 W/m2
20:27 16.5 °C 9.7 °C 1024.6 hPa SSE 7.2 km/h 17.2 km/h 64% 0.0 mm 671 W/m2
20:32 16.2 °C 9.8 °C 1024.6 hPa South 5.0 km/h 18.3 km/h 66% 0.0 mm 659 W/m2
20:37 16.3 °C 10.2 °C 1024.6 hPa SSE 2.6 km/h 18.3 km/h 67% 0.0 mm 649 W/m2
20:42 16.8 °C 11.3 °C 1024.6 hPa SSE 3.5 km/h 17.2 km/h 70% 0.0 mm 645 W/m2
20:47 17.5 °C 10.8 °C 1024.6 hPa South 6.1 km/h 12.2 km/h 65% 0.0 mm 641 W/m2
20:52 17.1 °C 10.2 °C 1024.6 hPa South 11.1 km/h 18.3 km/h 64% 0.0 mm 543 W/m2
20:57 16.6 °C 10.7 °C 1024.6 hPa South 2.6 km/h 18.3 km/h 68% 0.0 mm 593 W/m2
21:02 17.4 °C 11.0 °C 1024.3 hPa Calm   17.2 km/h 66% 0.0 mm 624 W/m2
21:07 17.7 °C 10.8 °C 1024.6 hPa SSE 3.5 km/h 13.4 km/h 64% 0.0 mm 351 W/m2
21:12 17.7 °C 10.6 °C 1024.6 hPa SSE 6.1 km/h 13.4 km/h 63% 0.0 mm 311 W/m2
21:17 17.3 °C 10.4 °C 1024.6 hPa SE 5.0 km/h 13.4 km/h 64% 0.0 mm 583 W/m2
21:22 17.7 °C 10.6 °C 1024.3 hPa SE 2.6 km/h 13.4 km/h 63% 0.0 mm 575 W/m2
21:27 17.8 °C 10.4 °C 1024.3 hPa SE 1.1 km/h 15.8 km/h 62% 0.0 mm 566 W/m2
21:32 18.0 °C 10.8 °C 1024.3 hPa ESE 6.1 km/h 15.8 km/h 63% 0.0 mm 552 W/m2
21:37 17.7 °C 10.3 °C 1024.3 hPa SSE 6.1 km/h 13.4 km/h 62% 0.0 mm 534 W/m2
21:42 17.6 °C 10.2 °C 1024.3 hPa Calm   14.8 km/h 62% 0.0 mm 534 W/m2
21:47 17.8 °C 10.2 °C 1024.3 hPa ESE 2.6 km/h 14.8 km/h 61% 0.0 mm 524 W/m2
21:52 17.6 °C 10.2 °C 1024.3 hPa SE 11.1 km/h 14.8 km/h 62% 0.0 mm 520 W/m2
21:57 17.7 °C 11.3 °C 1024.3 hPa SSE 5.0 km/h 14.8 km/h 66% 0.0 mm 521 W/m2
22:02 17.9 °C 11.2 °C 1024.3 hPa SSE 11.1 km/h 15.8 km/h 65% 0.0 mm 513 W/m2
22:07 17.2 °C 10.8 °C 1024.3 hPa SSE 2.6 km/h 15.8 km/h 66% 0.0 mm 448 W/m2
22:15 17.2 °C 10.8 °C 1024.3 hPa SE 3.5 km/h 14.8 km/h 66% 0.0 mm 111 W/m2
22:35 17.1 °C 10.7 °C 1024.3 hPa SSE 2.6 km/h 15.8 km/h 66% 0.0 mm 418 W/m2
22:40 17.3 °C 10.7 °C 1024.3 hPa SSE 6.1 km/h 15.8 km/h 65% 0.0 mm 409 W/m2
22:45 17.4 °C 11.2 °C 1024.3 hPa SSE 3.5 km/h 14.8 km/h 67% 0.0 mm 399 W/m2
22:50 17.1 °C 10.7 °C 1024.3 hPa SSE 7.2 km/h 13.4 km/h 66% 0.0 mm 389 W/m2
22:55 17.0 °C 10.8 °C 1024.3 hPa SE 2.6 km/h 13.4 km/h 67% 0.0 mm 371 W/m2
22:58 17.4 °C 10.8 °C 1024.3 hPa SE 6.1 km/h 14.8 km/h 65% 0.0 mm 367 W/m2
23:03 17.5 °C 10.6 °C 1024.6 hPa SE 2.6 km/h 17.2 km/h 64% 0.0 mm 357 W/m2
23:08 17.2 °C 10.1 °C 1024.6 hPa SSE 2.6 km/h 17.2 km/h 63% 0.0 mm 342 W/m2
23:13 17.4 °C 10.1 °C 1024.6 hPa SE 3.5 km/h 17.2 km/h 62% 0.0 mm 328 W/m2
23:18 17.7 °C 10.6 °C 1024.6 hPa SE 6.1 km/h 13.4 km/h 63% 0.0 mm 318 W/m2
23:23 17.4 °C 10.1 °C 1024.6 hPa SE 5.0 km/h 13.4 km/h 62% 0.0 mm 304 W/m2
23:28 17.3 °C 9.9 °C 1024.3 hPa SSE 7.2 km/h 13.4 km/h 62% 0.0 mm 294 W/m2
23:33 17.4 °C 9.6 °C 1024.3 hPa SE 2.6 km/h 11.1 km/h 60% 0.0 mm 280 W/m2
23:38 17.8 °C 10.2 °C 1024.3 hPa SE 2.6 km/h 11.1 km/h 61% 0.0 mm 269 W/m2
23:43 17.8 °C 10.4 °C 1024.6 hPa Calm   11.1 km/h 62% 0.0 mm 256 W/m2
23:48 17.9 °C 10.1 °C 1024.6 hPa SSE 1.1 km/h 11.1 km/h 60% 0.0 mm 250 W/m2
23:53 17.7 °C 9.8 °C 1024.6 hPa SE 2.6 km/h 9.7 km/h 60% 0.0 mm 245 W/m2
23:58 18.0 °C 9.6 °C 1024.6 hPa SE 5.0 km/h 9.7 km/h 58% 0.0 mm 237 W/m2
Northern Hawkes Bay. New Zealand Historic Data
Compliments of Weather Underground - 2 mb